Time;durP1;ratioP1;P1;durP2;ratioP2;P2;SDS_P1;SDS_P2;PMS_P1;PMS_P2;Temp;Humidity;BMP_temperature;BMP_pressure;BME280_temperature;BME280_humidity;BME280_pressure;Samples;Min_cycle;Max_cycle;Signal;HPM_P1;HPM_P2
2022/11/02 00:02:14;;;;;;;4.57;0.90;;;;;;;12.69;68.76;101304.16;5072080;28;20467;-77
2022/11/02 00:04:39;;;;;;;4.68;1.23;;;;;;;12.70;68.63;101299.78;5072200;28;20020;-77
2022/11/02 00:07:05;;;;;;;6.93;1.30;;;;;;;12.70;69.05;101299.78;5072013;28;20031;-77
2022/11/02 00:09:30;;;;;;;5.68;1.15;;;;;;;12.70;68.98;101302.38;5072125;28;20017;-77
2022/11/02 00:11:55;;;;;;;5.35;1.10;;;;;;;12.70;68.37;101299.78;5072076;28;20044;-77
2022/11/02 00:14:20;;;;;;;4.20;0.82;;;;;;;12.72;68.61;101297.97;5072422;28;20029;-77
2022/11/02 00:16:46;;;;;;;6.05;1.20;;;;;;;12.74;68.84;101304.00;5071089;28;20059;-77
2022/11/02 00:19:11;;;;;;;7.25;0.90;;;;;;;12.74;68.73;101296.19;5072138;28;20059;-77
2022/11/02 00:21:37;;;;;;;5.93;1.05;;;;;;;12.73;68.71;101302.31;5072147;28;20044;-77
2022/11/02 00:24:04;;;;;;;5.03;1.10;;;;;;;12.71;68.75;101296.25;5072495;28;20074;-77
2022/11/02 00:26:33;;;;;;;6.68;1.30;;;;;;;12.72;68.50;101295.38;5072547;28;20056;-77
2022/11/02 00:28:59;;;;;;;5.20;0.95;;;;;;;12.74;68.67;101290.97;5072375;28;20036;-77
2022/11/02 00:31:24;;;;;;;7.35;1.50;;;;;;;12.76;68.29;101307.44;5071821;28;20028;-77
2022/11/02 00:33:50;;;;;;;5.63;1.00;;;;;;;12.79;68.36;101309.09;5072012;28;20040;-77
2022/11/02 00:36:16;;;;;;;4.15;1.23;;;;;;;12.82;67.94;101303.81;5071168;28;20111;-77
2022/11/02 00:38:41;;;;;;;7.22;1.42;;;;;;;12.83;67.97;101301.13;5072292;28;20506;-77
2022/11/02 00:41:07;;;;;;;5.07;0.90;;;;;;;12.80;67.87;101301.25;5071986;28;20033;-77
2022/11/02 00:43:32;;;;;;;3.88;0.90;;;;;;;12.82;67.39;101299.41;5073433;28;20020;-77
2022/11/02 00:45:57;;;;;;;4.63;1.00;;;;;;;12.82;67.66;101296.81;5076068;28;20048;-77
2022/11/02 00:48:22;;;;;;;4.03;0.95;;;;;;;12.80;67.73;101306.47;5076056;28;20075;-77
2022/11/02 00:50:48;;;;;;;6.25;0.98;;;;;;;12.83;67.43;101305.50;5075732;28;20020;-77
2022/11/02 00:53:13;;;;;;;8.32;1.23;;;;;;;12.87;66.84;101302.78;5076036;28;20024;-77
2022/11/02 00:55:38;;;;;;;5.75;1.05;;;;;;;12.87;67.24;101313.22;5075804;28;20021;-77
2022/11/02 00:58:03;;;;;;;5.15;1.17;;;;;;;12.94;66.50;101313.06;5075517;28;20426;-77
2022/11/02 01:00:29;;;;;;;3.38;0.90;;;;;;;12.96;65.89;101324.31;5075429;28;20024;-77
2022/11/02 01:02:58;;;;;;;5.45;0.90;;;;;;;12.99;65.58;101316.38;5075849;28;20352;-77
2022/11/02 01:05:23;;;;;;;6.03;1.20;;;;;;;13.02;64.93;101326.75;5074104;28;20016;-77
2022/11/02 01:07:49;;;;;;;6.65;1.00;;;;;;;13.01;65.11;101315.44;5075697;28;20066;-77
2022/11/02 01:10:14;;;;;;;4.50;0.77;;;;;;;13.00;64.88;101326.78;5075475;28;20024;-76
2022/11/02 01:12:39;;;;;;;5.18;0.88;;;;;;;12.99;65.03;101326.81;5075226;28;20492;-77
2022/11/02 01:15:07;;;;;;;5.55;0.95;;;;;;;12.95;65.16;101328.66;5075408;28;20020;-77
2022/11/02 01:17:32;;;;;;;4.47;0.65;;;;;;;12.89;65.50;101327.09;5074606;28;20066;-77
2022/11/02 01:19:58;;;;;;;5.57;0.90;;;;;;;12.86;66.20;101328.94;5075122;28;20073;-77
2022/11/02 01:22:23;;;;;;;4.72;0.80;;;;;;;12.81;66.48;101331.66;5075280;28;20028;-77
2022/11/02 01:24:48;;;;;;;4.30;0.60;;;;;;;12.79;66.06;101336.09;5075052;28;20035;-77
2022/11/02 01:27:13;;;;;;;6.15;1.20;;;;;;;12.78;66.24;101336.09;5075368;28;20032;-77
2022/11/02 01:29:39;;;;;;;4.95;0.98;;;;;;;12.76;66.25;101344.00;5075207;28;20033;-77
2022/11/02 01:32:04;;;;;;;4.40;0.80;;;;;;;12.73;65.38;101346.69;5074976;28;20032;-77
2022/11/02 01:34:29;;;;;;;8.15;1.33;;;;;;;12.73;65.08;101341.47;5074842;28;20036;-77
2022/11/02 01:36:55;;;;;;;3.65;0.90;;;;;;;12.72;64.75;101337.97;5075053;28;20117;-76
2022/11/02 01:39:20;;;;;;;3.05;0.73;;;;;;;12.70;64.62;101344.16;5073909;28;20039;-77
2022/11/02 01:41:50;;;;;;;4.72;0.70;;;;;;;12.65;64.66;101344.28;5073765;28;20056;-77
2022/11/02 01:44:25;;;;;;;3.28;0.75;;;;;;;12.64;65.23;101349.56;5074633;28;20404;-77
2022/11/02 01:46:53;;;;;;;5.90;1.00;;;;;;;12.60;64.50;101351.34;5074994;28;20024;-77
2022/11/02 01:49:20;;;;;;;6.07;0.88;;;;;;;12.58;64.43;101348.81;5074825;28;20021;-77
2022/11/02 01:51:53;;;;;;;4.03;1.08;;;;;;;12.52;64.33;101356.78;5074866;28;20464;-77
2022/11/02 01:54:23;;;;;;;4.05;0.75;;;;;;;12.49;64.57;101358.63;5074493;28;20070;-77
2022/11/02 01:56:54;;;;;;;3.53;0.80;;;;;;;12.47;64.44;101376.91;5074741;28;20029;-77
2022/11/02 01:59:26;;;;;;;6.43;0.80;;;;;;;12.47;64.04;101363.88;5074852;28;20028;-77
2022/11/02 02:01:51;;;;;;;3.38;0.63;;;;;;;12.43;64.28;101370.06;5074617;28;20279;-77
2022/11/02 02:04:18;;;;;;;4.72;0.68;;;;;;;12.41;64.33;101366.66;5074172;28;20101;-77
2022/11/02 02:06:44;;;;;;;5.88;0.80;;;;;;;12.39;64.42;101363.22;5074714;28;20020;-77
2022/11/02 02:09:09;;;;;;;4.13;0.80;;;;;;;12.38;64.97;101377.16;5074532;28;20024;-77
2022/11/02 02:11:37;;;;;;;4.32;0.80;;;;;;;12.39;64.76;101371.03;5074302;28;20063;-77
2022/11/02 02:14:11;;;;;;;5.78;0.98;;;;;;;12.39;65.03;101379.72;5074072;28;20043;-76
2022/11/02 02:17:09;;;;;;;3.97;0.73;;;;;;;12.40;65.10;101370.16;5074475;28;20039;-77
2022/11/02 02:19:40;;;;;;;5.82;0.90;;;;;;;12.39;64.95;101369.28;5074069;28;20052;-77
2022/11/02 02:22:38;;;;;;;;;;;;;;;12.43;64.94;101370.06;5074202;28;20115;-77
2022/11/02 02:25:21;;;;;;;4.63;1.02;;;;;;;12.38;65.17;101378.00;5070102;28;20375;-77
2022/11/02 02:28:18;;;;;;;5.05;0.80;;;;;;;12.35;65.21;101367.66;5073888;28;20111;-77
2022/11/02 02:30:55;;;;;;;4.90;0.90;;;;;;;12.29;65.35;101368.66;5074051;28;20460;-76
2022/11/02 02:33:34;;;;;;;3.72;0.95;;;;;;;12.27;65.54;101380.03;5074095;28;20036;-76
2022/11/02 02:36:12;;;;;;;5.85;0.90;;;;;;;12.22;65.63;101376.66;5073087;28;20033;-76
2022/11/02 02:39:09;;;;;;;4.55;0.98;;;;;;;12.21;65.74;101370.59;5052740;28;20112;-78
2022/11/02 02:41:43;;;;;;;5.80;0.90;;;;;;;12.17;65.77;101370.72;5050558;28;20138;-77
2022/11/02 02:44:14;;;;;;;5.25;1.00;;;;;;;12.13;66.27;101368.16;5053104;28;20036;-77
2022/11/02 02:47:02;;;;;;;5.35;0.80;;;;;;;12.11;66.22;101369.13;5073305;28;20086;-77
2022/11/02 02:49:52;;;;;;;7.22;0.90;;;;;;;12.07;66.27;101376.13;5073801;28;20025;-77
2022/11/02 02:52:20;;;;;;;4.22;0.93;;;;;;;12.04;66.64;101383.19;5073849;28;20032;-77
2022/11/02 02:54:47;;;;;;;5.07;0.80;;;;;;;12.01;66.70;101388.47;5073183;28;20028;-77
2022/11/02 02:57:16;;;;;;;4.88;0.90;;;;;;;11.98;66.83;101378.94;5073413;28;20020;-76
2022/11/02 02:59:44;;;;;;;7.18;1.23;;;;;;;11.93;67.06;101378.16;5073696;28;20028;-77
2022/11/02 03:02:30;;;;;;;4.68;0.90;;;;;;;11.89;66.95;101381.72;5073429;28;20035;-76
2022/11/02 03:04:56;;;;;;;5.72;0.85;;;;;;;11.88;67.37;101380.00;5073040;28;20036;-76
2022/11/02 03:07:27;;;;;;;7.10;0.93;;;;;;;11.84;67.50;101390.53;5073032;28;20020;-76
2022/11/02 03:10:00;;;;;;;;;;;;;;;11.86;66.87;101390.50;5072637;28;20028;-77
2022/11/02 03:12:32;;;;;;;6.18;0.98;;;;;;;11.82;67.36;101384.50;5073310;28;19943;-77
2022/11/02 03:15:23;;;;;;;5.00;0.90;;;;;;;11.82;67.31;101383.63;5072498;28;20024;-77
2022/11/02 03:18:19;;;;;;;4.30;0.82;;;;;;;11.78;67.27;101382.00;5073283;28;20048;-77
2022/11/02 03:20:57;;;;;;;4.68;0.90;;;;;;;11.76;67.46;101383.78;5073240;28;20025;-77
2022/11/02 03:23:31;;;;;;;5.45;1.13;;;;;;;11.74;67.09;101389.00;5073154;28;20081;-77
2022/11/02 03:26:06;;;;;;;4.35;0.90;;;;;;;11.73;67.37;101389.06;5073094;28;20032;-76
2022/11/02 03:28:50;;;;;;;5.28;0.95;;;;;;;11.73;67.06;101400.31;5071858;28;20037;-77
2022/11/02 03:31:19;;;;;;;3.97;1.27;;;;;;;11.75;67.07;101400.31;5053058;28;20025;-77
2022/11/02 03:33:55;;;;;;;3.65;0.93;;;;;;;11.75;66.98;101411.56;5058166;28;20039;-76
2022/11/02 03:36:31;;;;;;;6.28;1.00;;;;;;;11.80;66.65;101416.69;5073061;28;20046;-77
2022/11/02 03:39:07;;;;;;;4.40;0.90;;;;;;;11.79;66.90;101410.63;5073095;28;20480;-77
2022/11/02 03:41:35;;;;;;;8.57;1.30;;;;;;;11.78;66.63;101408.06;5072949;28;20138;-77
2022/11/02 03:44:08;;;;;;;8.27;1.17;;;;;;;11.79;66.54;101413.25;5072465;28;20024;-77
2022/11/02 03:46:37;;;;;;;7.63;1.00;;;;;;;11.81;66.30;101410.59;5072568;28;20028;-77
2022/11/02 03:49:05;;;;;;;9.32;1.20;;;;;;;11.79;66.81;101418.44;5072909;28;20016;-77
2022/11/02 03:51:34;;;;;;;4.60;0.90;;;;;;;11.78;66.35;101408.06;5072833;28;20031;-77
2022/11/02 03:54:12;;;;;;;7.63;1.00;;;;;;;11.75;66.66;101414.19;5072457;28;20029;-77
2022/11/02 03:56:48;;;;;;;8.18;1.38;;;;;;;11.74;66.54;101422.06;5071530;28;20046;-76
2022/11/02 03:59:14;;;;;;;6.32;1.00;;;;;;;11.70;66.43;101421.22;5052851;28;20029;-76
2022/11/02 04:01:43;;;;;;;5.57;0.90;;;;;;;11.69;66.79;101429.97;5059573;28;20025;-77
2022/11/02 04:04:09;;;;;;;5.13;1.08;;;;;;;11.66;66.73;101430.88;5072391;28;20111;-77
2022/11/02 04:06:34;;;;;;;4.60;1.30;;;;;;;11.65;66.99;101434.38;5071994;28;20047;-77
2022/11/02 04:09:00;;;;;;;6.68;1.10;;;;;;;11.65;66.69;101436.97;5072303;28;20472;-77
2022/11/02 04:19:39;;;;;;;7.25;1.00;;;;;;;11.61;67.49;101443.16;5075800;28;20035;-77
2022/11/02 04:27:32;;;;;;;8.10;1.00;;;;;;;11.56;67.73;101465.84;5076479;28;20084;-77
2022/11/02 04:29:57;;;;;;;8.63;1.45;;;;;;;11.55;68.32;101484.97;5076479;28;20063;-76
2022/11/02 04:35:07;;;;;;;8.88;1.00;;;;;;;11.56;68.07;101491.91;5076433;28;20034;-77
2022/11/02 04:40:24;;;;;;;4.20;0.80;;;;;;;11.56;68.23;101481.47;5076566;28;20043;-77
2022/11/02 04:42:49;;;;;;;5.97;0.88;;;;;;;11.57;68.17;101500.56;5075873;28;20028;-77
2022/11/02 04:45:14;;;;;;;6.38;1.05;;;;;;;11.62;67.66;101502.19;5076082;28;20107;-76
2022/11/02 04:47:40;;;;;;;7.72;1.23;;;;;;;11.61;67.95;101510.94;5076223;28;20245;-77
2022/11/02 04:50:05;;;;;;;8.07;1.10;;;;;;;11.62;68.15;101507.41;5075689;28;20060;-77
2022/11/02 04:52:30;;;;;;;8.95;0.88;;;;;;;11.61;68.06;101516.13;5075646;28;20029;-77
2022/11/02 04:54:56;;;;;;;5.95;1.13;;;;;;;11.58;68.06;101515.31;5075939;28;20376;-77
2022/11/02 04:57:21;;;;;;;9.57;1.20;;;;;;;11.54;68.29;101522.34;5075942;28;20104;-76
2022/11/02 04:59:46;;;;;;;13.05;1.40;;;;;;;11.54;68.35;101517.13;5075683;28;20044;-78
2022/11/02 05:02:11;;;;;;;5.93;1.00;;;;;;;11.55;68.23;101524.06;5075819;28;20081;-77
2022/11/02 05:04:37;;;;;;;10.60;1.20;;;;;;;11.50;68.42;101521.56;5075732;28;20036;-77
2022/11/02 05:07:05;;;;;;;7.68;1.23;;;;;;;11.47;68.34;101519.00;5075718;28;20024;-77
2022/11/02 05:09:30;;;;;;;6.10;1.30;;;;;;;11.45;68.54;101523.38;5074122;28;20036;-77
2022/11/02 05:11:55;;;;;;;10.50;1.35;;;;;;;11.47;67.96;101525.94;5074909;28;20044;-77
2022/11/02 05:14:21;;;;;;;6.88;1.10;;;;;;;11.45;68.22;101525.97;5074327;28;20387;-77
2022/11/02 05:16:46;;;;;;;6.72;1.10;;;;;;;11.47;67.95;101528.53;5074422;28;20107;-77
2022/11/02 05:19:11;;;;;;;10.52;1.10;;;;;;;11.47;68.18;101534.63;5074436;28;20020;-77
2022/11/02 05:21:36;;;;;;;9.07;1.45;;;;;;;11.46;68.70;101558.97;5074002;28;20506;-76
2022/11/02 05:24:02;;;;;;;4.18;0.80;;;;;;;11.49;68.16;101551.09;5072336;28;20081;-77
2022/11/02 05:26:27;;;;;;;11.55;1.10;;;;;;;11.50;68.16;101551.94;5073550;28;20029;-77
2022/11/02 05:28:52;;;;;;;4.47;0.90;;;;;;;11.48;68.08;101564.13;5073548;28;20064;-77
2022/11/02 05:31:17;;;;;;;5.93;1.15;;;;;;;11.46;67.91;101563.28;5073837;28;20032;-77
2022/11/02 05:33:43;;;;;;;4.63;1.08;;;;;;;11.44;67.86;101571.16;5074232;28;20043;-77
2022/11/02 05:36:09;;;;;;;8.32;1.27;;;;;;;11.44;67.95;101576.38;5073772;28;20036;-77
2022/11/02 05:38:34;;;;;;;6.50;1.08;;;;;;;11.46;67.52;101581.53;5073714;28;20028;-77
2022/11/02 05:40:59;;;;;;;4.03;1.00;;;;;;;11.46;67.66;101582.41;5073553;28;20039;-77
2022/11/02 05:43:25;;;;;;;10.13;1.48;;;;;;;11.47;68.01;101586.75;5072397;28;20453;-76
2022/11/02 05:45:54;;;;;;;10.82;1.27;;;;;;;11.48;67.71;101587.59;5073621;28;20040;-77
2022/11/02 05:48:20;;;;;;;4.40;1.05;;;;;;;11.48;67.65;101584.97;5073908;28;20024;-77
2022/11/02 05:50:45;;;;;;;5.13;1.33;;;;;;;11.46;67.95;101598.03;5073826;28;20020;-77
2022/11/02 05:53:11;;;;;;;6.82;1.20;;;;;;;11.45;67.85;101590.25;5074167;28;20068;-77
2022/11/02 05:55:36;;;;;;;5.32;0.98;;;;;;;11.49;67.49;101612.75;5073106;28;20028;-76
2022/11/02 05:58:01;;;;;;;7.70;1.25;;;;;;;11.50;67.45;101611.88;5073481;28;20114;-77
2022/11/02 06:00:26;;;;;;;8.07;1.25;;;;;;;11.44;67.47;101618.06;5073689;28;20024;-76
2022/11/02 06:02:56;;;;;;;8.13;1.10;;;;;;;11.44;67.36;101619.81;5072970;28;20104;-77
2022/11/02 06:05:22;;;;;;;6.85;1.13;;;;;;;11.37;67.84;101632.94;5073524;28;20093;-77
2022/11/02 06:07:47;;;;;;;9.75;1.10;;;;;;;11.32;67.89;101632.13;5073580;28;20044;-77
2022/11/02 06:10:13;;;;;;;6.63;1.02;;;;;;;11.29;67.82;101631.34;5073242;28;20059;-77
2022/11/02 06:12:38;;;;;;;7.78;1.00;;;;;;;11.25;67.87;101638.34;5038158;28;1026893;-77
2022/11/02 06:15:04;;;;;;;7.20;1.10;;;;;;;11.23;67.94;101647.94;5073056;28;20131;-76
2022/11/02 06:17:36;;;;;;;15.10;1.00;;;;;;;11.18;68.28;101648.00;5074222;28;20025;-77
2022/11/02 06:20:01;;;;;;;5.78;0.90;;;;;;;11.15;67.71;101652.38;5072659;28;20028;-77
2022/11/02 06:22:26;;;;;;;6.22;1.10;;;;;;;11.14;68.24;101655.88;5073816;28;20029;-76
2022/11/02 06:24:51;;;;;;;6.95;1.10;;;;;;;11.10;68.65;101659.41;5073635;28;20027;-77
2022/11/02 06:27:17;;;;;;;5.60;0.80;;;;;;;11.07;68.44;101670.72;5074334;28;20033;-77
2022/11/02 06:29:42;;;;;;;4.22;1.10;;;;;;;11.05;68.55;101673.34;5073943;28;20452;-77
2022/11/02 06:32:07;;;;;;;7.60;1.00;;;;;;;11.03;68.87;101669.91;5072485;28;20051;-76
2022/11/02 06:34:33;;;;;;;7.20;0.98;;;;;;;10.98;68.90;101687.34;5073606;28;20395;-76
2022/11/02 06:36:58;;;;;;;6.35;1.02;;;;;;;10.98;69.20;101689.09;5074020;28;20036;-77
2022/11/02 06:39:23;;;;;;;5.85;0.93;;;;;;;10.92;69.24;101695.25;5073649;28;20030;-77
2022/11/02 06:41:49;;;;;;;5.18;0.90;;;;;;;10.89;69.49;101705.69;5072557;28;20380;-77
2022/11/02 06:44:14;;;;;;;8.23;1.00;;;;;;;10.85;69.70;101704.00;5073640;28;20032;-77
2022/11/02 06:46:39;;;;;;;6.15;1.15;;;;;;;10.82;69.76;101717.94;5073852;28;20032;-76
2022/11/02 06:49:05;;;;;;;8.60;1.58;;;;;;;10.82;69.78;101714.44;5073181;28;20032;-76
2022/11/02 06:51:30;;;;;;;7.05;1.10;;;;;;;10.78;70.25;101724.06;5071875;28;20017;-77
2022/11/02 06:53:55;;;;;;;4.78;0.98;;;;;;;10.79;69.79;101733.59;5073775;28;20024;-77
2022/11/02 06:56:21;;;;;;;6.75;0.98;;;;;;;10.76;69.88;101739.66;5073219;28;20028;-78
2022/11/02 06:58:46;;;;;;;7.75;1.33;;;;;;;10.75;70.09;101747.50;5073321;28;20406;-77
2022/11/02 07:01:12;;;;;;;8.15;0.82;;;;;;;10.74;70.63;101756.19;5073506;28;20039;-77
2022/11/02 07:03:37;;;;;;;7.45;1.05;;;;;;;10.73;70.02;101762.28;5073667;28;20103;-77
2022/11/02 07:06:03;;;;;;;8.55;1.05;;;;;;;10.73;70.39;101767.47;5072898;28;20545;-77
2022/11/02 07:08:28;;;;;;;5.18;1.10;;;;;;;10.73;70.33;101776.16;5073423;28;20024;-77
2022/11/02 07:10:54;;;;;;;6.95;1.20;;;;;;;10.72;70.48;101774.44;5073250;28;20458;-77
2022/11/02 07:13:20;;;;;;;4.15;0.70;;;;;;;10.74;70.47;101787.44;5072945;28;20112;-76
2022/11/02 07:15:45;;;;;;;5.15;0.93;;;;;;;10.74;70.29;101790.91;5073234;28;20371;-77
2022/11/02 07:18:11;;;;;;;8.20;1.30;;;;;;;10.75;69.96;101795.25;5072952;28;20028;-76
2022/11/02 07:20:37;;;;;;;5.57;1.13;;;;;;;10.77;69.91;101803.84;5072752;28;20077;-76
2022/11/02 07:23:03;;;;;;;6.70;1.20;;;;;;;10.78;69.94;101794.34;5073321;28;20032;-77
2022/11/02 07:25:30;;;;;;;6.95;1.00;;;;;;;10.82;69.92;101813.38;5072653;28;20028;-77
2022/11/02 07:27:58;;;;;;;4.88;0.80;;;;;;;10.83;69.88;101817.69;5073086;28;20021;-77
2022/11/02 07:30:25;;;;;;;6.68;0.95;;;;;;;10.84;70.09;101822.91;5071780;28;20017;-77
2022/11/02 07:32:50;;;;;;;8.50;1.02;;;;;;;10.86;70.04;101826.31;5072696;28;20535;-77
2022/11/02 07:35:16;;;;;;;4.15;0.80;;;;;;;10.88;69.69;101821.13;5072929;28;20048;-77
2022/11/02 07:37:41;;;;;;;5.60;0.90;;;;;;;10.89;69.71;101825.44;5073061;28;20081;-77
2022/11/02 07:40:09;;;;;;;6.03;1.00;;;;;;;10.87;69.94;101824.59;5072704;28;20032;-77
2022/11/02 07:42:34;;;;;;;4.43;0.77;;;;;;;10.84;70.13;101822.91;5072829;28;20021;-77
2022/11/02 07:45:00;;;;;;;4.70;1.00;;;;;;;10.83;69.91;101838.53;5072840;28;20024;-77
2022/11/02 07:47:25;;;;;;;7.90;1.13;;;;;;;10.87;70.02;101850.63;5072864;28;20056;-77
2022/11/02 07:49:51;;;;;;;14.95;1.42;;;;;;;10.89;70.16;101841.06;5072632;28;20028;-77
2022/11/02 07:52:16;;;;;;;7.38;0.95;;;;;;;10.90;70.19;101842.78;5072639;28;20020;-77
2022/11/02 07:54:41;;;;;;;6.60;1.13;;;;;;;10.92;70.14;101844.50;5072498;28;20036;-77
2022/11/02 07:57:07;;;;;;;5.00;1.00;;;;;;;10.92;70.18;101838.44;5072862;28;20026;-77
2022/11/02 07:59:32;;;;;;;6.88;1.02;;;;;;;10.91;70.16;101853.19;5072031;28;20387;-77
2022/11/02 08:01:57;;;;;;;6.03;1.25;;;;;;;10.92;70.08;101848.84;5072837;28;20082;-77
2022/11/02 08:04:22;;;;;;;7.47;1.30;;;;;;;10.93;70.21;101861.84;5072574;28;20029;-76
2022/11/02 08:06:48;;;;;;;6.60;0.80;;;;;;;10.95;70.37;101850.56;5072704;28;20028;-76
2022/11/02 08:09:14;;;;;;;5.93;0.88;;;;;;;10.96;70.47;101866.13;5072392;28;20086;-77
2022/11/02 08:11:40;;;;;;;9.32;1.10;;;;;;;10.99;70.43;101865.25;5072524;28;20047;-77
2022/11/02 08:14:05;;;;;;;7.07;1.00;;;;;;;11.00;70.51;101862.63;5072649;28;20024;-77
2022/11/02 08:16:30;;;;;;;6.70;1.23;;;;;;;11.01;70.61;101864.34;5072600;28;20036;-77
2022/11/02 08:18:58;;;;;;;10.23;1.20;;;;;;;11.02;70.33;101866.09;5071670;28;20471;-76
2022/11/02 08:21:23;;;;;;;8.23;1.10;;;;;;;11.03;70.81;101867.81;5071913;28;20029;-77
2022/11/02 08:23:49;;;;;;;8.15;1.10;;;;;;;11.08;70.66;101872.97;5076825;28;20056;-77
2022/11/02 08:26:14;;;;;;;9.55;1.58;;;;;;;11.09;70.73;101869.47;5072563;28;20460;-76
2022/11/02 08:28:39;;;;;;;4.70;1.00;;;;;;;11.11;70.14;101874.66;5072450;28;20073;-77
2022/11/02 08:31:06;;;;;;;6.43;0.90;;;;;;;11.12;70.38;101877.25;5072550;28;20029;-77
2022/11/02 08:33:32;;;;;;;6.32;0.90;;;;;;;11.16;70.21;101884.16;5076370;28;20083;-78
2022/11/02 08:36:02;;;;;;;10.20;1.63;;;;;;;11.17;70.96;101879.81;5073427;28;20514;-77
2022/11/02 08:38:27;;;;;;;7.00;1.10;;;;;;;11.21;70.39;101889.31;5071200;28;20055;-77
2022/11/02 08:40:54;;;;;;;7.20;1.20;;;;;;;11.22;70.20;101888.44;5072361;28;20476;-77
2022/11/02 08:43:19;;;;;;;9.63;1.40;;;;;;;11.24;70.43;101882.31;5086627;28;20080;-77
2022/11/02 08:45:44;;;;;;;7.28;1.17;;;;;;;11.29;70.03;101899.66;5072667;28;20111;-77
2022/11/02 08:48:10;;;;;;;5.82;0.90;;;;;;;11.29;70.31;101900.50;5072299;28;20021;-77
2022/11/02 08:50:35;;;;;;;7.28;1.00;;;;;;;11.32;70.39;101899.63;5073471;28;20464;-77
2022/11/02 08:53:00;;;;;;;8.82;1.40;;;;;;;11.34;69.49;101913.50;5083464;28;20530;-77
2022/11/02 08:55:26;;;;;;;7.93;1.80;;;;;;;11.34;69.72;101919.56;5072146;28;20422;-76
2022/11/02 08:57:54;;;;;;;8.05;1.10;;;;;;;11.34;69.96;101918.69;5072067;28;20027;-77
2022/11/02 09:00:22;;;;;;;6.47;0.85;;;;;;;11.36;69.69;101920.41;5072131;28;20036;-77
2022/11/02 09:03:10;;;;;;;7.95;1.50;;;;;;;11.41;69.86;101924.69;5072069;28;20085;-77
2022/11/02 09:05:46;;;;;;;9.13;1.42;;;;;;;11.44;69.79;101928.13;5074779;28;20109;-77
2022/11/02 09:08:14;;;;;;;7.05;1.13;;;;;;;11.46;69.08;101926.38;5075830;28;20544;-77
2022/11/02 09:10:39;;;;;;;7.65;1.10;;;;;;;11.48;68.88;101921.13;5075884;28;20029;-76
2022/11/02 09:13:06;;;;;;;7.30;1.00;;;;;;;11.47;68.91;101917.66;5075086;28;20012;-77
2022/11/02 09:15:33;;;;;;;6.68;1.20;;;;;;;11.51;68.22;101916.75;5075203;28;20047;-76
2022/11/02 09:17:58;;;;;;;8.82;0.90;;;;;;;11.54;68.49;101921.06;5074970;28;20032;-77
2022/11/02 09:20:24;;;;;;;9.55;1.40;;;;;;;11.59;67.79;101927.09;5075298;28;20024;-76
2022/11/02 09:22:49;;;;;;;7.65;1.40;;;;;;;11.62;67.47;101928.78;5074825;28;20020;-77
2022/11/02 09:25:16;;;;;;;8.13;1.00;;;;;;;11.65;67.57;101934.81;5075483;28;20029;-77
2022/11/02 09:27:41;;;;;;;5.97;0.93;;;;;;;11.67;67.84;101933.06;5073423;28;20023;-77
2022/11/02 09:30:08;;;;;;;6.72;1.05;;;;;;;11.73;68.09;101936.47;5074774;28;20446;-77
2022/11/02 09:32:34;;;;;;;6.47;1.23;;;;;;;11.79;67.55;101942.47;5076076;28;20059;-77
2022/11/02 09:35:01;;;;;;;6.43;0.80;;;;;;;11.84;67.13;101939.78;5075871;28;20103;-77
2022/11/02 09:37:27;;;;;;;5.25;0.95;;;;;;;11.89;67.08;101938.00;5083045;28;20058;-76
2022/11/02 09:39:53;;;;;;;10.52;0.98;;;;;;;11.92;67.30;101940.56;5075196;28;20021;-76
2022/11/02 09:42:27;;;;;;;10.15;1.20;;;;;;;11.95;66.44;101948.34;5074265;28;20031;-76
2022/11/02 09:45:04;;;;;;;9.75;1.20;;;;;;;11.96;66.80;101944.81;5054984;28;20104;-78
2022/11/02 09:47:35;;;;;;;5.85;1.00;;;;;;;11.99;67.06;101936.16;5079101;28;20106;-77
2022/11/02 09:50:02;;;;;;;7.55;1.45;;;;;;;12.02;67.47;101937.84;5085834;28;20093;-77
2022/11/02 09:52:35;;;;;;;8.23;1.40;;;;;;;12.06;66.54;101949.97;5088374;28;20484;-76
2022/11/02 09:55:05;;;;;;;6.57;1.20;;;;;;;12.06;66.85;101944.75;5088635;28;20638;-77
2022/11/02 09:57:32;;;;;;;5.70;1.30;;;;;;;12.10;66.82;101951.66;5086487;28;20387;-77
2022/11/02 10:00:00;;;;;;;7.90;1.20;;;;;;;12.17;66.82;101961.09;5080219;28;20031;-77
2022/11/02 10:02:51;;;;;;;5.95;1.40;;;;;;;12.24;66.74;101959.25;5086520;28;20370;-77
2022/11/02 10:05:39;;;;;;;8.73;1.23;;;;;;;12.19;65.89;101951.50;5087837;28;20046;-76
2022/11/02 10:08:17;;;;;;;6.63;1.20;;;;;;;12.15;65.99;101960.25;5080354;28;20123;-77
2022/11/02 10:10:56;;;;;;;7.57;1.33;;;;;;;12.13;66.62;101965.50;5083915;28;20085;-77
2022/11/02 10:13:29;;;;;;;7.57;1.58;;;;;;;12.17;66.21;101961.09;5088428;28;20479;-77
2022/11/02 10:15:59;;;;;;;9.50;1.35;;;;;;;12.24;66.70;101970.56;5086200;28;20089;-77
2022/11/02 10:18:27;;;;;;;7.40;1.70;;;;;;;12.34;65.40;101976.53;5086815;28;20035;-77
2022/11/02 10:21:04;;;;;;;9.57;1.30;;;;;;;12.39;65.11;101973.84;5088438;28;20042;-77
2022/11/02 10:23:37;;;;;;;6.93;1.20;;;;;;;12.45;65.58;101977.22;5088459;28;20023;-77
2022/11/02 10:26:03;;;;;;;6.28;1.15;;;;;;;12.55;65.93;101983.16;5087408;28;20032;-77
2022/11/02 10:28:32;;;;;;;7.18;1.20;;;;;;;12.63;65.97;101984.78;5087973;28;20026;-77
2022/11/02 10:30:59;;;;;;;7.78;1.42;;;;;;;12.70;64.93;101989.00;5086083;28;20130;-77
2022/11/02 10:33:26;;;;;;;7.82;1.35;;;;;;;12.76;64.48;101994.16;5086663;28;20030;-77
2022/11/02 10:35:54;;;;;;;6.22;1.30;;;;;;;12.80;64.16;101985.38;5085000;28;20767;-77
2022/11/02 10:38:35;;;;;;;9.95;1.40;;;;;;;12.80;64.02;101984.50;5083018;28;20376;-76
2022/11/02 10:41:10;;;;;;;9.63;1.23;;;;;;;12.79;63.76;101982.78;5084813;28;20032;-76
2022/11/02 10:43:41;;;;;;;8.48;1.25;;;;;;;12.74;63.41;101978.47;5086464;28;20028;-77
2022/11/02 10:46:31;;;;;;;6.95;1.25;;;;;;;12.74;63.08;101975.88;5087924;28;20028;-77
2022/11/02 10:49:12;;;;;;;8.52;1.00;;;;;;;12.76;63.18;101983.69;5087066;28;20019;-78
2022/11/02 10:51:38;;;;;;;7.88;1.00;;;;;;;12.79;62.39;101999.31;5087966;28;20028;-77
2022/11/02 10:54:12;;;;;;;7.53;1.15;;;;;;;12.84;62.53;101992.25;5087912;28;20032;-77
2022/11/02 10:56:38;;;;;;;7.50;1.08;;;;;;;12.86;61.92;102000.09;5087843;28;20088;-76
2022/11/02 10:59:22;;;;;;;8.52;1.30;;;;;;;12.88;62.68;101999.16;5086823;28;20430;-77
2022/11/02 11:01:50;;;;;;;6.28;1.40;;;;;;;12.89;62.39;102006.09;5084986;28;20511;-76
2022/11/02 11:04:26;;;;;;;12.52;1.40;;;;;;;12.93;62.31;102003.44;5085383;28;20028;-76
2022/11/02 11:06:54;;;;;;;5.78;0.93;;;;;;;12.96;61.72;102006.00;5086638;28;20077;-77
2022/11/02 11:09:24;;;;;;;8.82;1.30;;;;;;;13.00;60.35;102012.88;5085568;28;20012;-76
2022/11/02 11:12:00;;;;;;;7.00;1.08;;;;;;;13.00;61.17;102007.66;5084281;28;20048;-77
2022/11/02 11:14:28;;;;;;;8.07;1.10;;;;;;;12.98;60.49;102012.06;5087133;28;20035;-76
2022/11/02 11:16:58;;;;;;;5.05;0.82;;;;;;;12.99;61.37;102009.44;5087325;28;20031;-77
2022/11/02 11:19:40;;;;;;;8.52;1.23;;;;;;;13.02;60.80;102012.00;5084756;28;20043;-76
2022/11/02 11:22:32;;;;;;;5.68;1.30;;;;;;;13.06;61.03;102012.78;5086288;28;20118;-77
2022/11/02 11:25:22;;;;;;;7.95;1.08;;;;;;;13.08;61.66;101995.34;5086732;28;20448;-77
2022/11/02 11:27:53;;;;;;;8.65;1.13;;;;;;;13.14;58.75;102005.69;5086108;28;20030;-77
2022/11/02 11:30:32;;;;;;;10.47;1.20;;;;;;;13.17;60.68;102002.16;5082329;28;20032;-77
2022/11/02 11:32:59;;;;;;;7.80;1.10;;;;;;;13.20;59.32;102000.34;5086010;28;20269;-78
2022/11/02 11:35:31;;;;;;;4.10;1.05;;;;;;;13.21;58.61;102004.69;5086112;28;20133;-77
2022/11/02 11:38:01;;;;;;;6.78;1.02;;;;;;;13.26;57.57;102008.97;5086899;28;20023;-77
2022/11/02 11:40:32;;;;;;;7.03;1.20;;;;;;;13.27;58.18;101998.47;5082669;28;20070;-78
2022/11/02 11:42:57;;;;;;;7.00;1.10;;;;;;;13.27;56.87;101998.47;5085901;28;20024;-77
2022/11/02 11:45:25;;;;;;;7.38;1.42;;;;;;;13.29;56.83;101993.22;5084468;28;20035;-77
2022/11/02 11:47:54;;;;;;;6.07;0.88;;;;;;;13.31;56.99;101984.47;5085922;28;20502;-77
2022/11/02 11:50:20;;;;;;;4.60;1.10;;;;;;;13.33;57.71;101981.81;5084196;28;20363;-77
2022/11/02 11:52:45;;;;;;;4.35;0.80;;;;;;;13.36;58.11;101984.38;5085508;28;20577;-76